Time;durP1;ratioP1;P1;durP2;ratioP2;P2;SDS_P1;SDS_P2;PMS_P1;PMS_P2;Temp;Humidity;BMP_temperature;BMP_pressure;BME280_temperature;BME280_humidity;BME280_pressure;Samples;Min_cycle;Max_cycle;Signal;HPM_P1;HPM_P2
2022/12/17 13:06:43;;;;;;;26.15;12.60;;;-4.60;99.90;;;;;;5002560;28;21747;-75
2022/12/17 13:09:39;;;;;;;26.58;11.90;;;-4.60;99.90;;;;;;4999566;28;20050;-74
2022/12/17 13:12:28;;;;;;;31.90;13.20;;;-4.50;99.90;;;;;;4932740;28;20038;-79
2022/12/17 13:15:17;;;;;;;29.45;13.65;;;-4.50;99.90;;;;;;4984841;28;20073;-75
2022/12/17 13:17:56;;;;;;;35.78;14.73;;;-4.50;99.90;;;;;;4984825;28;20047;-74
2022/12/17 13:20:28;;;;;;;32.97;14.25;;;-4.50;99.90;;;;;;4983719;28;20153;-76
2022/12/17 13:23:26;;;;;;;36.42;14.90;;;-4.50;99.90;;;;;;4987808;28;20417;-77
2022/12/17 13:26:21;;;;;;;35.65;15.15;;;-4.50;99.90;;;;;;4980128;28;20057;-77
2022/12/17 13:29:01;;;;;;;32.17;13.15;;;-4.50;99.90;;;;;;4989572;28;20062;-78
2022/12/17 13:31:43;;;;;;;28.70;13.25;;;-4.60;99.90;;;;;;5000728;28;20045;-72
2022/12/17 13:34:20;;;;;;;30.10;14.90;;;-4.60;99.90;;;;;;4987522;28;20474;-75
2022/12/17 13:36:58;;;;;;;31.90;14.95;;;-4.60;99.90;;;;;;4985936;28;20442;-72
2022/12/17 13:39:38;;;;;;;30.08;14.00;;;-4.60;99.90;;;;;;4983480;28;20049;-72
2022/12/17 13:42:26;;;;;;;33.30;15.23;;;-4.70;99.90;;;;;;4986149;28;20073;-73
2022/12/17 13:44:55;;;;;;;34.63;14.55;;;-4.70;99.90;;;;;;4975997;28;20070;-76
2022/12/17 13:47:27;;;;;;;33.08;15.70;;;-4.70;99.90;;;;;;4987533;28;20414;-78
2022/12/17 13:49:59;;;;;;;33.55;13.85;;;-4.70;99.90;;;;;;4987054;28;20065;-80
2022/12/17 13:52:28;;;;;;;37.20;15.75;;;-4.70;99.90;;;;;;4992078;28;20049;-74
2022/12/17 13:55:08;;;;;;;31.75;15.10;;;-4.70;99.90;;;;;;4988367;28;20403;-73
2022/12/17 13:57:38;;;;;;;42.78;16.63;;;-4.60;99.90;;;;;;4988121;28;20043;-74
2022/12/17 14:00:28;;;;;;;35.13;14.60;;;-4.50;99.90;;;;;;4988519;28;20494;-74
2022/12/17 14:02:58;;;;;;;26.38;12.73;;;-4.50;99.90;;;;;;4980595;28;20425;-73
2022/12/17 14:05:30;;;;;;;39.65;15.30;;;-4.50;99.90;;;;;;4985728;28;20633;-74
2022/12/17 14:08:01;;;;;;;30.58;14.68;;;-4.50;99.90;;;;;;4991319;28;20514;-75
2022/12/17 14:10:31;;;;;;;33.38;14.30;;;-4.50;99.90;;;;;;4990066;28;20053;-73
2022/12/17 14:13:06;;;;;;;35.38;14.90;;;-4.50;99.90;;;;;;4990202;28;20050;-74
2022/12/17 14:15:35;;;;;;;31.30;13.77;;;-4.60;99.90;;;;;;4988747;28;20166;-73
2022/12/17 14:18:05;;;;;;;31.73;13.45;;;-4.60;99.90;;;;;;4988131;28;21200;-74
2022/12/17 14:20:35;;;;;;;31.05;12.70;;;-4.60;99.90;;;;;;4971181;28;20138;-74
2022/12/17 14:23:06;;;;;;;25.60;12.63;;;-4.60;99.90;;;;;;4990518;28;20392;-73
2022/12/17 14:25:37;;;;;;;34.17;13.48;;;-4.60;99.90;;;;;;5008105;28;20058;-73
2022/12/17 14:28:19;;;;;;;32.80;14.27;;;-4.60;99.90;;;;;;4986873;28;20054;-73
2022/12/17 14:30:47;;;;;;;34.30;13.77;;;-4.60;99.90;;;;;;4972751;28;20153;-71
2022/12/17 14:33:31;;;;;;;28.60;13.95;;;-4.60;99.90;;;;;;4989012;28;20039;-77
2022/12/17 14:36:03;;;;;;;37.95;14.27;;;-4.60;99.90;;;;;;4985736;28;20046;-72
2022/12/17 14:38:31;;;;;;;29.08;13.80;;;-4.60;99.90;;;;;;4987705;28;20054;-74
2022/12/17 14:42:24;;;;;;;35.80;13.77;;;-4.50;99.90;;;;;;4987329;28;20047;-72
2022/12/17 14:43:57;;;;;;;29.35;13.55;;;-4.50;99.90;;;;;;4992194;28;20507;-72
2022/12/17 14:46:25;;;;;;;33.63;13.85;;;-4.40;99.90;;;;;;4997113;28;20068;-73
2022/12/17 14:49:01;;;;;;;33.92;13.35;;;-4.50;99.90;;;;;;4987131;28;20077;-73
2022/12/17 14:51:33;;;;;;;29.30;14.30;;;-4.50;99.90;;;;;;4985091;28;20050;-73
2022/12/17 14:54:19;;;;;;;27.15;12.32;;;-4.50;99.90;;;;;;4999355;28;20042;-75
2022/12/17 14:56:49;;;;;;;33.30;13.32;;;-4.40;99.90;;;;;;4997845;28;20118;-73
2022/12/17 14:59:25;;;;;;;37.03;14.95;;;-4.40;99.90;;;;;;4995374;28;20136;-77
2022/12/17 15:01:55;;;;;;;31.33;14.32;;;-4.40;99.90;;;;;;4985734;28;20051;-77
2022/12/17 15:04:24;;;;;;;30.05;15.00;;;-4.40;99.90;;;;;;4994718;28;20057;-77
2022/12/17 15:06:55;;;;;;;30.02;13.98;;;-4.40;99.90;;;;;;5001671;28;20080;-78
2022/12/17 15:09:23;;;;;;;34.50;14.90;;;-4.40;99.90;;;;;;4988783;28;20149;-78
2022/12/17 15:11:51;;;;;;;27.55;13.98;;;-4.30;99.90;;;;;;4988985;28;20488;-77
2022/12/17 15:14:20;;;;;;;31.80;15.73;;;-4.30;99.90;;;;;;4994882;28;20050;-77
2022/12/17 15:16:48;;;;;;;30.00;13.85;;;-4.30;99.90;;;;;;4987551;28;20572;-75
2022/12/17 15:19:16;;;;;;;33.53;15.15;;;-4.30;99.90;;;;;;4999329;28;20494;-73
2022/12/17 15:21:46;;;;;;;34.70;14.02;;;-4.30;99.90;;;;;;4970575;28;20065;-72
2022/12/17 15:24:19;;;;;;;33.42;13.45;;;-4.30;99.90;;;;;;4997432;28;20049;-75
2022/12/17 15:26:48;;;;;;;32.13;13.48;;;-4.30;99.90;;;;;;4987513;28;20058;-75
2022/12/17 15:29:16;;;;;;;29.98;13.95;;;-4.30;99.90;;;;;;4990564;28;20427;-82
2022/12/17 15:31:44;;;;;;;34.88;15.90;;;-4.30;99.90;;;;;;4986191;28;20321;-74
2022/12/17 15:34:12;;;;;;;33.58;15.85;;;-4.30;99.90;;;;;;4987824;28;20050;-74
2022/12/17 15:36:40;;;;;;;34.35;15.50;;;-4.20;99.90;;;;;;4989420;28;20406;-73
2022/12/17 15:39:09;;;;;;;36.35;14.77;;;-4.20;99.90;;;;;;4987624;28;20049;-73
2022/12/17 15:44:38;;;;;;;30.13;13.48;;;-4.20;99.90;;;;;;5000786;28;20053;-74
2022/12/17 15:47:05;;;;;;;35.72;17.23;;;-4.20;99.90;;;;;;4984661;28;20065;-72
2022/12/17 15:49:34;;;;;;;30.33;15.23;;;-4.20;99.90;;;;;;4985975;28;20100;-71
2022/12/17 15:52:01;;;;;;;34.75;16.05;;;-4.10;99.90;;;;;;4991258;28;20064;-78
2022/12/17 15:54:31;;;;;;;34.45;15.98;;;-4.10;99.90;;;;;;4989153;28;20515;-78
2022/12/17 15:56:58;;;;;;;37.78;17.45;;;-4.20;99.90;;;;;;4991839;28;20086;-79
2022/12/17 15:59:26;;;;;;;36.60;16.33;;;-4.10;99.90;;;;;;4989846;28;20046;-79
2022/12/17 16:01:54;;;;;;;39.70;17.52;;;-4.10;99.90;;;;;;4991891;28;20073;-77
2022/12/17 16:04:22;;;;;;;35.10;16.50;;;-4.20;99.90;;;;;;4985600;28;20133;-71
2022/12/17 16:06:53;;;;;;;31.90;14.80;;;-4.20;99.90;;;;;;4981069;28;20066;-77
2022/12/17 16:09:27;;;;;;;34.25;15.98;;;-4.10;99.90;;;;;;4984750;28;20050;-78
2022/12/17 16:11:58;;;;;;;41.20;16.95;;;-4.10;99.90;;;;;;4982448;28;20046;-76
2022/12/17 16:14:28;;;;;;;35.30;16.17;;;-4.10;99.90;;;;;;4973236;28;20046;-78
2022/12/17 16:16:56;;;;;;;35.03;16.50;;;-4.10;99.90;;;;;;4989055;28;20070;-72
2022/12/17 16:19:24;;;;;;;32.80;16.60;;;-4.10;99.90;;;;;;4991261;28;20065;-78
2022/12/17 16:21:51;;;;;;;35.80;18.33;;;-4.10;99.90;;;;;;4990015;28;20489;-78
2022/12/17 16:24:19;;;;;;;40.80;17.83;;;-4.10;99.90;;;;;;5004417;28;20053;-80
2022/12/17 16:26:46;;;;;;;42.22;19.40;;;-4.10;99.90;;;;;;4979336;28;20109;-78
2022/12/17 16:29:18;;;;;;;37.28;17.90;;;-4.10;99.90;;;;;;4981437;28;20128;-78
2022/12/17 16:31:46;;;;;;;43.70;18.50;;;-4.10;99.90;;;;;;4980711;28;20133;-79
2022/12/17 16:34:14;;;;;;;40.95;19.35;;;-4.10;99.90;;;;;;4985945;28;20070;-74
2022/12/17 16:36:42;;;;;;;44.00;18.73;;;-4.10;99.90;;;;;;4989212;28;20145;-71
2022/12/17 16:39:16;;;;;;;33.40;17.00;;;-4.10;99.90;;;;;;4981377;28;20046;-73
2022/12/17 16:41:44;;;;;;;42.45;17.83;;;-4.10;99.90;;;;;;4994049;28;20052;-74
2022/12/17 16:44:13;;;;;;;43.28;19.25;;;-4.10;99.90;;;;;;4988319;28;20054;-72
2022/12/17 16:46:43;;;;;;;40.33;20.17;;;-4.10;99.90;;;;;;4981644;28;23650;-73
2022/12/17 16:49:15;;;;;;;44.35;20.75;;;-4.10;99.90;;;;;;4982758;28;20437;-79
2022/12/17 16:51:43;;;;;;;46.28;19.90;;;-4.10;99.90;;;;;;4983163;28;20213;-79
2022/12/17 16:54:15;;;;;;;45.42;19.33;;;-4.10;99.90;;;;;;4981519;28;20609;-78
2022/12/17 16:56:43;;;;;;;42.33;19.15;;;-4.10;99.90;;;;;;4989528;28;20072;-77
2022/12/17 16:59:22;;;;;;;42.97;18.88;;;-4.10;99.90;;;;;;4983226;28;20038;-76
2022/12/17 17:01:55;;;;;;;40.45;18.98;;;-4.10;99.90;;;;;;4988116;28;20062;-77
2022/12/17 17:04:23;;;;;;;37.65;17.90;;;-4.00;99.90;;;;;;4984707;28;20105;-78
2022/12/17 17:06:54;;;;;;;38.13;17.40;;;-4.00;99.90;;;;;;4982519;28;20140;-79
2022/12/17 17:09:25;;;;;;;38.53;18.42;;;-4.00;99.90;;;;;;4982319;28;20478;-74
2022/12/17 17:11:56;;;;;;;36.47;16.95;;;-4.00;99.90;;;;;;4986945;28;20399;-78
2022/12/17 17:14:24;;;;;;;36.70;16.17;;;-4.00;99.90;;;;;;4987385;28;20589;-79
2022/12/17 17:16:53;;;;;;;35.35;16.80;;;-4.00;99.90;;;;;;4987868;28;20037;-78
2022/12/17 17:19:23;;;;;;;43.58;17.25;;;-3.90;99.90;;;;;;5002200;28;20057;-73
2022/12/17 17:21:55;;;;;;;42.97;16.48;;;-3.90;99.90;;;;;;4982664;28;20041;-74
2022/12/17 17:24:24;;;;;;;36.63;16.63;;;-3.90;99.90;;;;;;4963133;28;20151;-75
2022/12/17 17:26:55;;;;;;;33.38;15.40;;;-4.00;99.90;;;;;;4987590;28;20519;-74
2022/12/17 17:29:22;;;;;;;36.95;15.60;;;-3.90;99.90;;;;;;4990556;28;20051;-77
2022/12/17 17:31:52;;;;;;;35.75;17.33;;;-3.90;99.90;;;;;;4986892;28;21908;-73
2022/12/17 17:34:19;;;;;;;39.30;17.58;;;-3.90;99.90;;;;;;4992274;28;20050;-79
2022/12/17 17:36:47;;;;;;;41.92;17.95;;;-3.90;99.90;;;;;;4984775;28;20145;-79
2022/12/17 17:39:17;;;;;;;38.75;17.70;;;-3.90;99.90;;;;;;4991738;28;20144;-77
2022/12/17 17:41:45;;;;;;;39.78;18.73;;;-3.90;99.90;;;;;;4980746;28;20050;-77
2022/12/17 17:44:14;;;;;;;37.65;18.20;;;-3.90;99.90;;;;;;4986253;28;20096;-78
2022/12/17 17:46:42;;;;;;;54.03;22.42;;;-3.90;99.90;;;;;;4985810;28;20177;-78
2022/12/17 17:49:11;;;;;;;46.47;20.73;;;-3.90;99.90;;;;;;4986428;28;20179;-72
2022/12/17 17:51:43;;;;;;;42.67;18.92;;;-3.90;99.90;;;;;;4988415;28;20554;-73
2022/12/17 17:54:12;;;;;;;36.90;16.83;;;-3.90;99.90;;;;;;4970049;28;20038;-72
2022/12/17 17:56:41;;;;;;;31.83;15.38;;;-3.90;99.90;;;;;;4987210;28;20129;-73
2022/12/17 17:59:12;;;;;;;21.83;10.05;;;-3.80;99.90;;;;;;4980950;28;20403;-76
2022/12/17 18:01:42;;;;;;;17.27;7.70;;;-3.90;99.90;;;;;;4981458;28;20406;-73
2022/12/17 18:04:14;;;;;;;19.13;8.50;;;-3.90;99.90;;;;;;4984113;28;20054;-73
2022/12/17 18:06:44;;;;;;;26.65;12.82;;;-3.90;99.90;;;;;;4968193;28;20065;-72
2022/12/17 18:09:12;;;;;;;27.70;11.10;;;-3.90;99.90;;;;;;4983523;28;20043;-73
2022/12/17 18:11:42;;;;;;;28.42;13.00;;;-3.90;99.90;;;;;;4991249;28;20634;-74
2022/12/17 18:14:11;;;;;;;31.20;14.63;;;-3.90;99.90;;;;;;4987833;28;20108;-73
2022/12/17 18:16:41;;;;;;;30.15;14.18;;;-3.90;99.90;;;;;;4984907;28;20038;-73
2022/12/17 18:19:13;;;;;;;32.97;13.68;;;-3.80;99.90;;;;;;4987819;28;20082;-71
2022/12/17 18:21:42;;;;;;;31.02;14.70;;;-3.80;99.90;;;;;;4985658;28;20053;-73
2022/12/17 18:24:14;;;;;;;32.13;13.77;;;-3.80;99.90;;;;;;4988000;28;20453;-73
2022/12/17 18:26:44;;;;;;;31.20;14.38;;;-3.80;99.90;;;;;;4985046;28;20086;-72
2022/12/17 18:29:16;;;;;;;25.15;12.55;;;-3.80;99.90;;;;;;4985440;28;20426;-73
2022/12/17 18:31:44;;;;;;;20.05;9.38;;;-3.80;99.90;;;;;;4997321;28;20050;-73
2022/12/17 18:34:16;;;;;;;19.08;8.95;;;-3.80;99.90;;;;;;4986744;28;20038;-74
2022/12/17 18:36:45;;;;;;;18.08;8.38;;;-3.80;99.90;;;;;;4980951;28;20280;-72
2022/12/17 18:39:15;;;;;;;15.10;8.35;;;-3.80;99.90;;;;;;4962004;28;20518;-75
2022/12/17 18:44:33;;;;;;;22.05;10.20;;;-3.80;99.90;;;;;;5017780;28;20056;-73
2022/12/17 18:47:05;;;;;;;22.70;11.15;;;-3.80;99.90;;;;;;4989268;28;20050;-74
2022/12/17 18:49:34;;;;;;;26.95;12.77;;;-3.80;99.90;;;;;;5002854;28;20042;-76
2022/12/17 18:52:02;;;;;;;23.05;11.30;;;-3.80;99.90;;;;;;5002625;28;20052;-73
2022/12/17 18:54:32;;;;;;;22.85;11.00;;;-3.80;99.90;;;;;;5003898;28;20046;-76
2022/12/17 18:57:00;;;;;;;24.05;11.13;;;-3.80;99.90;;;;;;5013648;28;20088;-78
2022/12/17 18:59:30;;;;;;;23.10;10.52;;;-3.80;99.90;;;;;;5008467;28;20457;-76
2022/12/17 19:01:59;;;;;;;22.35;10.75;;;-3.80;99.90;;;;;;5008216;28;20068;-75
2022/12/17 19:04:27;;;;;;;21.73;10.85;;;-3.80;99.90;;;;;;5003311;28;20073;-81
2022/12/17 19:06:56;;;;;;;25.20;12.10;;;-3.80;99.90;;;;;;5004295;28;20048;-80
2022/12/17 19:09:27;;;;;;;22.70;10.57;;;-3.80;99.90;;;;;;5004922;28;20468;-82
2022/12/17 19:11:56;;;;;;;24.48;11.82;;;-3.80;99.90;;;;;;5006113;28;20502;-79
2022/12/17 19:14:24;;;;;;;23.38;11.20;;;-3.80;99.90;;;;;;4999166;28;20585;-78
2022/12/17 19:16:54;;;;;;;24.13;12.20;;;-3.80;99.90;;;;;;5018401;28;20577;-80
2022/12/17 19:19:22;;;;;;;20.33;11.70;;;-3.70;99.90;;;;;;5005604;28;20437;-76
2022/12/17 19:21:52;;;;;;;20.15;10.73;;;-3.70;99.90;;;;;;5006889;28;20173;-77
2022/12/17 19:24:23;;;;;;;13.98;7.30;;;-3.70;99.90;;;;;;5012358;28;20049;-76
2022/12/17 19:26:51;;;;;;;12.38;6.40;;;-3.70;99.90;;;;;;5018473;28;20175;-79
2022/12/17 19:29:20;;;;;;;12.70;7.35;;;-3.70;99.90;;;;;;5012986;28;20049;-81
2022/12/17 19:31:49;;;;;;;13.98;7.03;;;-3.70;99.90;;;;;;4998728;28;20679;-80
2022/12/17 19:34:19;;;;;;;14.70;7.80;;;-3.70;99.90;;;;;;5003045;28;20054;-80
2022/12/17 19:36:49;;;;;;;14.98;8.20;;;-3.70;99.90;;;;;;5000168;28;20056;-82
2022/12/17 19:39:21;;;;;;;19.40;10.90;;;-3.70;99.90;;;;;;5006435;28;20054;-80
2022/12/17 19:41:51;;;;;;;35.13;16.13;;;-3.70;99.90;;;;;;5003315;28;20058;-80
2022/12/17 19:44:20;;;;;;;23.42;11.23;;;-3.60;99.90;;;;;;4992809;28;20120;-79
2022/12/17 19:46:49;;;;;;;22.08;11.85;;;-3.60;99.90;;;;;;5002565;28;20056;-79
2022/12/17 19:49:22;;;;;;;25.05;12.20;;;-3.60;99.90;;;;;;5003590;28;20050;-81
2022/12/17 19:52:03;;;;;;;22.67;11.77;;;-3.60;99.90;;;;;;5063243;23;20050;-79
2022/12/17 19:54:43;;;;;;;24.58;11.80;;;-3.70;99.90;;;;;;5019697;28;20054;-79
2022/12/17 19:57:11;;;;;;;16.88;8.38;;;-3.70;99.90;;;;;;5002756;28;20046;-81
2022/12/17 19:59:50;;;;;;;13.27;7.68;;;-3.70;99.90;;;;;;5003693;28;20034;-80
2022/12/17 20:02:19;;;;;;;12.02;7.38;;;-3.70;99.90;;;;;;5001309;28;20038;-75
2022/12/17 20:04:47;;;;;;;11.23;6.20;;;-3.80;99.90;;;;;;4991015;28;20050;-73
2022/12/17 20:07:18;;;;;;;13.27;7.00;;;-3.80;99.90;;;;;;4995222;28;20050;-73
2022/12/17 20:09:47;;;;;;;19.27;9.57;;;-3.80;99.90;;;;;;5006934;28;20506;-75
2022/12/17 20:12:15;;;;;;;16.15;9.15;;;-3.80;99.90;;;;;;5010142;28;20049;-74
2022/12/17 20:15:13;;;;;;;21.25;10.40;;;-3.80;99.90;;;;;;5012114;28;20391;-75
2022/12/17 20:17:46;;;;;;;24.85;11.85;;;-3.90;99.90;;;;;;5008799;28;20081;-75
2022/12/17 20:20:14;;;;;;;22.10;11.90;;;-3.90;99.90;;;;;;5010170;28;20054;-80
2022/12/17 20:22:42;;;;;;;21.52;10.02;;;-3.90;99.90;;;;;;5011286;28;20128;-78
2022/12/17 20:25:11;;;;;;;23.65;9.65;;;-3.90;99.90;;;;;;4996252;28;20152;-81
2022/12/17 20:27:40;;;;;;;20.90;10.52;;;-3.90;99.90;;;;;;5009613;28;20417;-81
2022/12/17 20:30:09;;;;;;;24.85;12.70;;;-3.90;99.90;;;;;;5011592;28;20053;-80
2022/12/17 20:32:37;;;;;;;23.30;12.18;;;-3.90;99.90;;;;;;5010840;28;20161;-78
2022/12/17 20:35:07;;;;;;;22.70;11.35;;;-3.80;99.90;;;;;;4992961;28;20061;-76
2022/12/17 20:37:37;;;;;;;28.77;13.40;;;-3.80;99.90;;;;;;5003937;28;20514;-79
2022/12/17 20:40:07;;;;;;;26.63;13.00;;;-3.90;99.90;;;;;;5010973;28;20057;-79
2022/12/17 20:42:36;;;;;;;26.75;12.63;;;-3.90;99.90;;;;;;5007028;28;20050;-80
2022/12/17 20:45:05;;;;;;;26.77;12.48;;;-3.90;99.90;;;;;;4999478;28;20057;-79
2022/12/17 20:47:33;;;;;;;22.13;10.98;;;-3.90;99.90;;;;;;5009933;28;20064;-79
2022/12/17 20:51:09;;;;;;;26.17;14.00;;;-3.90;99.90;;;;;;5010730;28;20038;-80
2022/12/17 20:53:38;;;;;;;28.40;12.82;;;-3.90;99.90;;;;;;4997778;28;20054;-80
2022/12/17 20:56:09;;;;;;;22.17;10.90;;;-4.00;99.90;;;;;;5011607;28;20046;-78
2022/12/17 20:58:39;;;;;;;14.95;6.88;;;-3.90;99.90;;;;;;5010827;28;20050;-77
2022/12/17 21:01:10;;;;;;;16.38;8.60;;;-4.00;99.90;;;;;;5008483;28;20056;-79
2022/12/17 21:03:39;;;;;;;14.65;7.40;;;-4.00;99.90;;;;;;5008992;28;20418;-79
2022/12/17 21:06:09;;;;;;;17.40;8.82;;;-4.00;99.90;;;;;;4995689;28;20535;-79
2022/12/17 21:08:37;;;;;;;18.70;9.32;;;-4.00;99.90;;;;;;5006696;28;20449;-74
2022/12/17 21:11:06;;;;;;;18.80;9.48;;;-4.00;99.90;;;;;;5000989;28;20053;-75
2022/12/17 21:13:35;;;;;;;11.45;7.22;;;-4.00;99.90;;;;;;4992833;28;20054;-74
2022/12/17 21:16:11;;;;;;;15.65;8.40;;;-4.00;99.90;;;;;;4992595;28;20041;-74
2022/12/17 21:18:39;;;;;;;14.68;7.72;;;-4.00;99.90;;;;;;5000906;28;20054;-75
2022/12/17 21:21:11;;;;;;;14.23;7.72;;;-4.10;99.90;;;;;;5002792;28;20046;-77
2022/12/17 21:23:40;;;;;;;17.42;8.05;;;-4.00;99.90;;;;;;4990654;28;20046;-75
2022/12/17 21:26:12;;;;;;;13.68;7.97;;;-4.00;99.90;;;;;;5010951;28;20092;-75
2022/12/17 21:28:41;;;;;;;11.80;7.10;;;-4.00;99.90;;;;;;5009787;28;20426;-80
2022/12/17 21:31:17;;;;;;;12.57;6.18;;;-4.00;99.90;;;;;;5004792;28;20107;-80
2022/12/17 21:33:45;;;;;;;12.02;6.22;;;-4.00;99.90;;;;;;5002920;28;20129;-79
2022/12/17 21:36:14;;;;;;;14.30;6.90;;;-4.10;99.90;;;;;;4986185;28;20042;-79
2022/12/17 21:38:42;;;;;;;11.57;6.40;;;-4.10;99.90;;;;;;5009533;28;20062;-79
2022/12/17 21:41:13;;;;;;;10.88;5.80;;;-4.10;99.90;;;;;;5006494;28;20125;-80
2022/12/17 21:43:41;;;;;;;11.88;6.55;;;-4.10;99.90;;;;;;5009382;28;20058;-80
2022/12/17 21:46:10;;;;;;;10.77;5.93;;;-4.10;99.90;;;;;;4991584;28;20056;-80
2022/12/17 21:48:42;;;;;;;11.00;6.18;;;-4.10;99.90;;;;;;5000288;28;20061;-81
2022/12/17 21:51:12;;;;;;;11.23;6.43;;;-4.10;99.90;;;;;;5008817;28;20049;-79
2022/12/17 21:53:42;;;;;;;11.13;5.82;;;-4.10;99.90;;;;;;5010052;28;20049;-79
2022/12/17 21:56:13;;;;;;;8.38;5.88;;;-4.10;99.90;;;;;;5008068;28;20050;-80
2022/12/17 21:58:43;;;;;;;10.32;6.50;;;-4.10;99.90;;;;;;5009559;28;20057;-78
2022/12/17 22:01:14;;;;;;;10.02;5.80;;;-4.10;99.90;;;;;;4999284;28;20572;-78
2022/12/17 22:03:44;;;;;;;9.07;5.28;;;-4.20;99.90;;;;;;4996435;28;20054;-80
2022/12/17 22:06:14;;;;;;;8.48;4.97;;;-4.20;99.90;;;;;;5006946;28;20517;-81
2022/12/17 22:08:42;;;;;;;12.35;6.35;;;-4.20;99.90;;;;;;5009519;28;20045;-79
2022/12/17 22:11:11;;;;;;;12.18;6.60;;;-4.20;99.90;;;;;;5008316;28;20045;-78
2022/12/17 22:16:24;;;;;;;11.77;6.50;;;-4.20;99.90;;;;;;5010789;28;20061;-80
2022/12/17 22:18:53;;;;;;;14.90;7.03;;;-4.20;99.90;;;;;;5012918;28;20077;-80
2022/12/17 22:21:21;;;;;;;13.90;7.57;;;-4.30;99.90;;;;;;5012580;28;20407;-79
2022/12/17 22:23:50;;;;;;;13.75;6.15;;;-4.30;99.90;;;;;;5008428;28;20571;-79
2022/12/17 22:26:19;;;;;;;12.10;6.03;;;-4.20;99.90;;;;;;5013788;28;20426;-80
2022/12/17 22:28:48;;;;;;;13.63;6.85;;;-4.20;99.90;;;;;;5014091;28;20053;-79
2022/12/17 22:34:09;;;;;;;14.35;7.07;;;-4.20;99.90;;;;;;5011378;28;20517;-78
2022/12/17 22:36:37;;;;;;;14.10;7.43;;;-4.10;99.90;;;;;;5010535;28;21523;-80
2022/12/17 22:39:08;;;;;;;15.98;8.50;;;-4.10;99.90;;;;;;5006934;28;20050;-79
2022/12/17 22:44:21;;;;;;;15.27;8.52;;;-4.10;99.90;;;;;;4993847;28;20145;-80
2022/12/17 22:46:48;;;;;;;15.07;8.30;;;-4.10;99.90;;;;;;4998610;28;20049;-80
2022/12/17 22:49:18;;;;;;;16.67;9.55;;;-4.10;99.90;;;;;;5006162;28;20054;-83
2022/12/17 22:51:46;;;;;;;17.92;8.68;;;-4.10;99.90;;;;;;5007356;28;20546;-80
2022/12/17 22:54:14;;;;;;;15.75;7.80;;;-4.10;99.90;;;;;;4996554;28;20076;-83
2022/12/17 22:56:43;;;;;;;15.65;8.45;;;-4.10;99.90;;;;;;5002401;28;20038;-81
2022/12/17 22:59:16;;;;;;;18.23;8.90;;;-4.20;99.90;;;;;;5010876;28;20050;-80
2022/12/17 23:01:44;;;;;;;16.08;8.32;;;-4.20;99.90;;;;;;5010102;28;20061;-80
2022/12/17 23:04:14;;;;;;;14.23;8.35;;;-4.20;99.90;;;;;;4998078;28;20128;-78
2022/12/17 23:06:45;;;;;;;20.65;8.80;;;-4.20;99.90;;;;;;5008772;28;20053;-79
2022/12/17 23:09:12;;;;;;;17.92;8.75;;;-4.20;99.90;;;;;;5011036;28;20049;-80
2022/12/17 23:11:40;;;;;;;14.95;8.77;;;-4.20;99.90;;;;;;5013256;28;20049;-80
2022/12/17 23:14:09;;;;;;;14.45;8.55;;;-4.20;99.90;;;;;;5010975;28;21681;-80
2022/12/17 23:16:38;;;;;;;18.73;8.60;;;-4.30;99.90;;;;;;5012125;28;20056;-80
2022/12/17 23:19:07;;;;;;;15.10;8.60;;;-4.30;99.90;;;;;;5010621;28;20115;-80
2022/12/17 23:21:35;;;;;;;16.85;7.97;;;-4.30;99.90;;;;;;5011062;28;20540;-79
2022/12/17 23:24:05;;;;;;;15.45;7.38;;;-4.30;99.90;;;;;;4983405;28;20427;-78
2022/12/17 23:26:35;;;;;;;11.57;7.20;;;-4.30;99.90;;;;;;5010838;28;20062;-79
2022/12/17 23:29:08;;;;;;;14.23;7.50;;;-4.40;99.90;;;;;;5011766;28;20093;-80
2022/12/17 23:31:38;;;;;;;15.18;7.55;;;-4.40;99.90;;;;;;4998012;28;20517;-77
2022/12/17 23:34:07;;;;;;;16.08;8.63;;;-4.40;99.90;;;;;;5003200;28;20054;-78
2022/12/17 23:36:36;;;;;;;14.10;7.72;;;-4.40;99.90;;;;;;4995584;28;20041;-78
2022/12/17 23:39:06;;;;;;;16.90;8.63;;;-4.40;99.90;;;;;;5008214;28;20073;-78
2022/12/17 23:41:33;;;;;;;12.32;7.57;;;-4.30;99.90;;;;;;5002496;28;20046;-78
2022/12/17 23:44:01;;;;;;;12.88;6.97;;;-4.30;99.90;;;;;;5007933;28;20693;-79
2022/12/17 23:46:30;;;;;;;12.48;7.78;;;-4.40;99.90;;;;;;5008148;28;20041;-80
2022/12/17 23:48:58;;;;;;;15.82;8.10;;;-4.40;99.90;;;;;;5007728;28;20050;-79
2022/12/17 23:51:26;;;;;;;13.48;6.85;;;-4.40;99.90;;;;;;4994872;28;20049;-78
2022/12/17 23:53:55;;;;;;;14.60;7.20;;;-4.40;99.90;;;;;;5011682;28;20069;-79
2022/12/17 23:56:26;;;;;;;14.90;9.02;;;-4.30;99.90;;;;;;4994233;28;20074;-78
2022/12/17 23:58:56;;;;;;;13.32;7.85;;;-4.30;99.90;;;;;;4993009;28;20050;-79
